createdAt,value
2023-05-03T00:02:29.011Z,1.90
2023-05-03T00:05:01.760Z,2.30
2023-05-03T00:07:33.945Z,2.23
2023-05-03T00:10:05.851Z,2.20
2023-05-03T00:12:36.732Z,2.00
2023-05-03T00:15:08.612Z,2.20
2023-05-03T00:17:44.622Z,1.83
2023-05-03T00:20:16.160Z,2.03
2023-05-03T00:22:47.049Z,2.07
2023-05-03T00:25:18.278Z,2.10
2023-05-03T00:27:49.660Z,2.00
2023-05-03T00:30:21.095Z,1.70
2023-05-03T00:32:54.094Z,1.80
2023-05-03T00:35:25.488Z,2.37
2023-05-03T00:37:57.204Z,1.90
2023-05-03T00:40:28.228Z,2.07
2023-05-03T00:42:59.635Z,2.00
2023-05-03T00:45:33.047Z,2.10
2023-05-03T00:48:06.076Z,2.00
2023-05-03T00:50:39.216Z,2.10
2023-05-03T00:53:12.819Z,2.30
2023-05-03T00:55:45.505Z,1.90
2023-05-03T00:58:18.517Z,1.70
2023-05-03T01:00:53.098Z,1.93
2023-05-03T01:03:27.005Z,1.60
2023-05-03T01:06:06.908Z,1.87
2023-05-03T01:08:44.928Z,1.70
2023-05-03T01:11:23.579Z,1.80
2023-05-03T01:13:59.928Z,2.10
2023-05-03T01:16:36.297Z,1.60
2023-05-03T01:19:24.922Z,1.70
2023-05-03T01:22:20.330Z,1.60
2023-05-03T01:24:55.866Z,1.80
2023-05-03T01:27:30.017Z,1.73
2023-05-03T01:30:02.922Z,1.97
2023-05-03T01:32:44.692Z,2.10
2023-05-03T01:35:24.046Z,1.87
2023-05-03T01:45:59.658Z,1.80
2023-05-03T01:48:34.554Z,1.67
2023-05-03T01:51:06.260Z,1.53
2023-05-03T01:53:38.146Z,1.80
2023-05-03T01:56:10.954Z,1.57
2023-05-03T01:58:42.004Z,1.60
2023-05-03T02:01:13.576Z,1.60
2023-05-03T02:03:46.134Z,1.20
2023-05-03T02:06:17.039Z,1.57
2023-05-03T02:08:48.213Z,1.40
2023-05-03T02:11:19.759Z,1.30
2023-05-03T02:13:52.481Z,1.53
2023-05-03T02:16:23.861Z,1.40
2023-05-03T02:19:00.183Z,1.70
2023-05-03T02:21:31.378Z,1.30
2023-05-03T02:24:02.908Z,1.40
2023-05-03T02:26:34.545Z,1.33
2023-05-03T02:29:05.894Z,1.30
2023-05-03T02:31:37.286Z,1.50
2023-05-03T02:34:11.563Z,1.37
2023-05-03T02:36:43.339Z,1.03
2023-05-03T02:39:15.353Z,1.30
2023-05-03T03:06:00.472Z,1.60
2023-05-03T03:08:32.035Z,1.57
2023-05-03T03:16:28.334Z,1.80
2023-05-03T03:19:00.061Z,1.50
2023-05-03T03:21:40.788Z,2.07
2023-05-03T03:24:13.940Z,2.07
2023-05-03T03:26:46.429Z,1.87
2023-05-03T03:29:18.073Z,1.87
2023-05-03T03:31:50.236Z,1.93
2023-05-03T04:09:25.940Z,1.63
2023-05-03T04:11:58.375Z,1.80
2023-05-03T04:14:33.307Z,2.00
2023-05-03T04:17:09.164Z,1.50
2023-05-03T04:19:43.328Z,1.60
2023-05-03T04:22:18.083Z,1.70
2023-05-03T04:24:52.520Z,1.70
2023-05-03T04:27:25.177Z,1.93
2023-05-03T04:29:57.596Z,1.57
2023-05-03T04:32:30.050Z,1.53
2023-05-03T04:35:02.645Z,1.50
2023-05-03T05:15:23.388Z,2.00
2023-05-03T05:17:56.062Z,1.80
2023-05-03T05:20:28.433Z,2.37
2023-05-03T05:23:00.252Z,2.03
2023-05-03T06:38:22.454Z,2.43
2023-05-03T06:40:54.800Z,2.50
2023-05-03T06:43:28.071Z,2.20
2023-05-03T06:46:00.567Z,2.30
2023-05-03T07:47:59.482Z,2.53
2023-05-03T14:06:42.751Z,2.50
2023-05-03T14:09:19.351Z,2.57
2023-05-03T15:03:12.742Z,2.67
2023-05-03T15:05:48.961Z,2.77
2023-05-03T15:08:24.461Z,2.37
2023-05-03T15:10:56.273Z,2.80
2023-05-03T15:13:28.202Z,2.37
2023-05-03T15:16:01.772Z,2.67
2023-05-03T15:18:35.772Z,2.47
2023-05-03T15:21:09.179Z,2.90
2023-05-03T15:23:40.748Z,2.20
2023-05-03T15:26:13.143Z,2.30
2023-05-03T16:14:29.773Z,1.80
2023-05-03T16:17:04.691Z,2.00
2023-05-03T16:19:39.186Z,2.20
2023-05-03T16:27:27.611Z,2.07
2023-05-03T16:30:03.709Z,1.90
2023-05-03T16:32:35.791Z,2.13
2023-05-03T17:18:23.519Z,1.80
2023-05-03T17:20:57.388Z,2.37
2023-05-03T17:23:30.301Z,2.03
2023-05-03T17:28:38.432Z,2.17
2023-05-03T18:00:50.407Z,2.53
2023-05-03T18:19:33.255Z,2.70
2023-05-03T18:22:06.075Z,2.53
2023-05-03T18:43:38.089Z,2.57
2023-05-03T18:46:13.792Z,2.43
2023-05-03T18:48:45.876Z,2.73
2023-05-03T18:51:18.693Z,2.57
2023-05-03T18:53:51.537Z,2.30
2023-05-03T18:56:23.608Z,2.43
2023-05-03T19:15:10.618Z,3.07
2023-05-03T19:17:43.213Z,2.33
2023-05-03T19:20:15.119Z,2.30
2023-05-03T19:22:46.597Z,2.50
2023-05-03T19:25:18.749Z,2.37
2023-05-03T19:27:50.032Z,2.50
2023-05-03T19:30:23.576Z,2.13
2023-05-03T19:32:55.253Z,2.70
2023-05-03T19:35:26.873Z,2.83
2023-05-03T19:37:58.102Z,2.30
2023-05-03T19:40:29.353Z,2.60
2023-05-03T19:43:00.534Z,2.77
2023-05-03T19:45:34.158Z,2.40
2023-05-03T19:48:05.585Z,2.37
2023-05-03T19:50:39.712Z,2.60
2023-05-03T19:53:11.005Z,2.70
2023-05-03T19:55:42.163Z,2.50
2023-05-03T19:58:14.229Z,2.53
2023-05-03T20:00:47.353Z,2.50
2023-05-03T20:03:18.581Z,2.50
2023-05-03T20:05:49.707Z,2.70
2023-05-03T20:08:21.292Z,2.73
2023-05-03T20:10:53.384Z,2.83
2023-05-03T20:13:27.229Z,2.50
2023-05-03T20:15:59.842Z,2.37
2023-05-03T20:18:30.880Z,2.30
2023-05-03T20:21:01.987Z,2.20
2023-05-03T20:23:32.943Z,2.57
2023-05-03T20:26:04.608Z,2.47
2023-05-03T20:28:35.913Z,2.57
2023-05-03T20:31:08.487Z,2.80
2023-05-03T20:33:39.460Z,2.37
2023-05-03T20:36:11.350Z,2.57
2023-05-03T20:38:42.443Z,2.70
2023-05-03T20:41:14.071Z,2.63
2023-05-03T20:43:45.465Z,2.80
2023-05-03T20:46:18.131Z,2.80
2023-05-03T20:48:49.010Z,3.00
2023-05-03T20:51:20.485Z,2.77
2023-05-03T20:53:51.704Z,2.53
2023-05-03T20:56:22.782Z,2.20
2023-05-03T20:58:53.888Z,3.10
2023-05-03T21:01:26.958Z,2.80
2023-05-03T21:03:57.697Z,3.20
2023-05-03T21:06:28.766Z,2.77
2023-05-03T21:09:00.059Z,2.83
2023-05-03T21:11:31.336Z,2.77
2023-05-03T21:14:02.283Z,2.83
2023-05-03T21:16:35.595Z,2.90
2023-05-03T21:19:06.570Z,2.83
2023-05-03T21:21:37.629Z,2.97
2023-05-03T21:24:09.163Z,2.43
2023-05-03T21:26:39.962Z,2.90
2023-05-03T21:29:10.744Z,2.70
2023-05-03T21:31:43.681Z,2.73
2023-05-03T21:34:14.930Z,2.87
2023-05-03T21:36:46.044Z,2.80
2023-05-03T21:39:16.889Z,2.50
2023-05-03T21:41:47.929Z,3.40
2023-05-03T21:44:20.442Z,2.73
2023-05-03T21:46:54.773Z,3.17
2023-05-03T21:49:26.512Z,3.20
2023-05-03T21:51:58.603Z,2.90
2023-05-03T21:54:31.478Z,2.87
2023-05-03T21:57:02.592Z,2.90
2023-05-03T21:59:34.158Z,2.87
2023-05-03T22:02:08.151Z,2.77
2023-05-03T22:04:39.910Z,2.80
2023-05-03T22:07:12.541Z,3.10
2023-05-03T22:09:44.349Z,2.43
2023-05-03T22:14:51.065Z,2.93
2023-05-03T22:17:25.859Z,2.87
2023-05-03T22:19:57.892Z,2.83
2023-05-03T22:22:29.274Z,2.97
2023-05-03T22:25:03.772Z,2.60
2023-05-03T22:27:35.542Z,2.90
2023-05-03T22:30:07.380Z,2.93
2023-05-03T22:32:41.797Z,6.97
2023-05-03T22:35:15.309Z,2.67
2023-05-03T22:37:48.906Z,2.90
2023-05-03T22:40:21.306Z,2.90
2023-05-03T22:42:52.610Z,2.67
2023-05-03T22:45:24.236Z,2.80
2023-05-03T22:47:58.231Z,3.20
2023-05-03T22:50:29.857Z,2.90
2023-05-03T22:53:01.512Z,2.77
2023-05-03T22:55:33.239Z,2.60
2023-05-03T22:58:04.805Z,2.97
2023-05-03T23:00:36.699Z,2.70
2023-05-03T23:03:10.612Z,2.63
2023-05-03T23:05:43.419Z,2.80
2023-05-03T23:08:15.046Z,2.50
2023-05-03T23:10:47.239Z,2.33
2023-05-03T23:13:19.032Z,2.97
2023-05-03T23:15:50.152Z,2.50
2023-05-03T23:18:23.566Z,2.57
2023-05-03T23:20:54.579Z,2.60
2023-05-03T23:23:25.823Z,2.40
2023-05-03T23:25:56.998Z,2.37
2023-05-03T23:28:28.288Z,2.37
2023-05-03T23:30:59.612Z,2.47
2023-05-03T23:33:33.256Z,2.10
2023-05-03T23:36:04.528Z,2.47
2023-05-03T23:38:35.788Z,2.30
2023-05-03T23:41:07.707Z,2.63
2023-05-03T23:43:39.023Z,2.57
2023-05-03T23:46:10.701Z,2.67
2023-05-03T23:48:43.559Z,2.37
2023-05-03T23:51:15.294Z,2.93
2023-05-03T23:53:46.655Z,2.63
2023-05-03T23:56:17.787Z,2.83
2023-05-03T23:58:49.183Z,2.73
